Time;durP1;ratioP1;P1;durP2;ratioP2;P2;SDS_P1;SDS_P2;PMS_P1;PMS_P2;Temp;Humidity;BMP_temperature;BMP_pressure;BME280_temperature;BME280_humidity;BME280_pressure;Samples;Min_cycle;Max_cycle;Signal;HPM_P1;HPM_P2
2021/12/30 00:01:56;;;;;;;15.90;7.07;;;;;;;;;;4918798;29;20332;-88
2021/12/30 00:04:25;;;;;;;6.30;2.93;;;;;;;;;;4918776;29;20311;-88
2021/12/30 00:06:54;;;;;;;18.87;5.90;;;;;;;;;;4917993;29;20323;-88
2021/12/30 00:09:22;;;;;;;15.17;4.37;;;;;;;;;;4918744;29;20224;-88
2021/12/30 00:11:52;;;;;;;12.90;4.67;;;;;;;;;;4918421;29;20209;-88
2021/12/30 00:14:44;;;;;;;12.20;4.53;;;;;;;;;;4918604;29;20207;-88
2021/12/30 00:17:13;;;;;;;23.50;8.17;;;;;;;;;;4918279;29;20241;-88
2021/12/30 00:19:41;;;;;;;11.70;4.10;;;;;;;;;;4918544;29;20214;-88
2021/12/30 00:22:10;;;;;;;14.17;4.80;;;;;;;;;;4917466;29;20215;-88
2021/12/30 00:24:38;;;;;;;5.40;2.93;;;;;;;;;;4918306;29;20251;-88
2021/12/30 00:27:09;;;;;;;30.50;7.30;;;;;;;;;;4917913;29;20235;-88
2021/12/30 00:29:37;;;;;;;12.33;5.50;;;;;;;;;;4918384;29;20210;-88
2021/12/30 00:32:08;;;;;;;14.10;5.83;;;;;;;;;;4918135;29;20273;-87
2021/12/30 00:34:36;;;;;;;10.23;4.60;;;;;;;;;;4918274;29;20226;-89
2021/12/30 00:37:05;;;;;;;21.33;5.13;;;;;;;;;;4917969;29;20274;-88
2021/12/30 00:39:33;;;;;;;18.47;5.23;;;;;;;;;;4917872;29;20207;-88
2021/12/30 00:42:02;;;;;;;19.13;5.03;;;;;;;;;;4918118;29;20207;-88
2021/12/30 00:44:30;;;;;;;27.63;7.80;;;;;;;;;;4912476;29;20203;-89
2021/12/30 00:46:59;;;;;;;14.30;3.50;;;;;;;;;;4899143;29;20322;-88
2021/12/30 00:49:29;;;;;;;17.60;4.37;;;;;;;;;;4899286;29;20208;-88
2021/12/30 00:51:57;;;;;;;14.07;4.23;;;;;;;;;;4899163;29;20275;-89
2021/12/30 00:54:25;;;;;;;10.07;4.10;;;;;;;;;;4899445;29;20235;-88
2021/12/30 00:56:54;;;;;;;30.67;9.67;;;;;;;;;;4899634;29;20203;-89
2021/12/30 00:59:25;;;;;;;6.23;2.70;;;;;;;;;;4898908;29;20302;-88
2021/12/30 01:01:54;;;;;;;17.70;5.53;;;;;;;;;;4899031;29;20211;-88
2021/12/30 01:04:23;;;;;;;21.90;6.40;;;;;;;;;;4898776;29;20228;-88
2021/12/30 01:06:53;;;;;;;7.83;4.13;;;;;;;;;;4898711;29;20247;-88
2021/12/30 01:09:21;;;;;;;7.90;3.67;;;;;;;;;;4899094;29;20203;-88
2021/12/30 01:11:50;;;;;;;15.63;4.00;;;;;;;;;;4899104;29;20211;-88
2021/12/30 01:14:23;;;;;;;12.13;3.83;;;;;;;;;;4898960;29;20220;-89
2021/12/30 01:16:56;;;;;;;14.83;5.47;;;;;;;;;;4899226;29;20259;-86
2021/12/30 01:19:42;;;;;;;22.73;6.10;;;;;;;;;;4899252;29;20200;-86
2021/12/30 01:22:13;;;;;;;22.37;6.37;;;;;;;;;;4898876;29;20207;-88
2021/12/30 01:24:42;;;;;;;22.20;7.40;;;;;;;;;;4899001;29;20247;-87
2021/12/30 01:27:11;;;;;;;14.13;6.03;;;;;;;;;;4898990;29;20259;-87
2021/12/30 01:29:39;;;;;;;22.07;5.97;;;;;;;;;;4899112;29;20323;-88
2021/12/30 01:32:09;;;;;;;16.97;6.43;;;;;;;;;;4899195;29;20215;-87
2021/12/30 01:34:38;;;;;;;20.40;7.23;;;;;;;;;;4901154;29;20294;-87
2021/12/30 01:37:06;;;;;;;20.60;5.97;;;;;;;;;;4902365;29;20224;-88
2021/12/30 01:39:38;;;;;;;19.53;4.87;;;;;;;;;;4902956;29;20211;-86
2021/12/30 01:42:08;;;;;;;33.80;11.30;;;;;;;;;;4902720;29;20236;-88
2021/12/30 01:44:36;;;;;;;29.30;6.50;;;;;;;;;;4908360;29;20247;-88
2021/12/30 01:47:05;;;;;;;5.33;3.27;;;;;;;;;;4921074;29;20231;-87
2021/12/30 01:49:34;;;;;;;14.13;4.93;;;;;;;;;;4921254;29;20303;-87
2021/12/30 01:52:02;;;;;;;12.57;4.00;;;;;;;;;;4921082;29;20241;-88
2021/12/30 01:54:31;;;;;;;24.10;6.63;;;;;;;;;;4921217;29;20251;-88
2021/12/30 01:57:03;;;;;;;22.07;6.10;;;;;;;;;;4921210;29;20231;-87
2021/12/30 01:59:31;;;;;;;36.53;9.30;;;;;;;;;;4921174;29;20203;-87
2021/12/30 02:02:00;;;;;;;22.93;7.83;;;;;;;;;;4920598;29;20222;-87
2021/12/30 02:04:33;;;;;;;21.00;5.77;;;;;;;;;;4920762;29;20282;-87
2021/12/30 02:07:01;;;;;;;26.83;8.17;;;;;;;;;;4920860;29;20310;-89
2021/12/30 02:09:31;;;;;;;17.47;4.23;;;;;;;;;;4920872;29;20211;-87
2021/12/30 02:12:02;;;;;;;15.67;3.40;;;;;;;;;;4920447;29;20214;-87
2021/12/30 02:14:33;;;;;;;9.60;5.83;;;;;;;;;;4920742;29;20215;-87
2021/12/30 02:17:02;;;;;;;8.37;4.03;;;;;;;;;;4920617;29;20215;-88
2021/12/30 02:19:30;;;;;;;10.33;3.53;;;;;;;;;;4920602;29;20266;-88
2021/12/30 02:22:00;;;;;;;18.20;6.20;;;;;;;;;;4920740;29;20215;-88
2021/12/30 02:24:28;;;;;;;7.63;3.07;;;;;;;;;;4920526;29;20277;-88
2021/12/30 02:26:57;;;;;;;11.13;2.77;;;;;;;;;;4920649;29;20234;-88
2021/12/30 02:29:25;;;;;;;1.70;1.60;;;;;;;;;;4920373;29;20241;-87
2021/12/30 02:31:54;;;;;;;15.17;3.40;;;;;;;;;;4920604;29;20234;-88
2021/12/30 02:34:23;;;;;;;10.47;4.23;;;;;;;;;;4920330;29;20231;-87
2021/12/30 02:36:51;;;;;;;13.27;4.40;;;;;;;;;;4920667;29;20207;-88
2021/12/30 02:39:23;;;;;;;13.57;6.33;;;;;;;;;;4920601;29;20227;-87
2021/12/30 02:41:53;;;;;;;25.63;5.57;;;;;;;;;;4920401;29;20216;-87
2021/12/30 02:44:21;;;;;;;8.73;3.27;;;;;;;;;;4920264;29;20253;-88
2021/12/30 02:46:54;;;;;;;14.40;4.73;;;;;;;;;;4920162;29;20223;-88
2021/12/30 02:49:23;;;;;;;12.27;4.83;;;;;;;;;;4920202;29;20211;-88
2021/12/30 02:51:52;;;;;;;12.87;4.07;;;;;;;;;;4920285;29;20271;-88
2021/12/30 02:54:22;;;;;;;7.83;4.23;;;;;;;;;;4920368;29;20235;-88
2021/12/30 02:56:53;;;;;;;8.90;4.17;;;;;;;;;;4912225;29;20237;-88
2021/12/30 02:59:21;;;;;;;4.97;2.07;;;;;;;;;;4903674;29;20236;-88
2021/12/30 03:01:51;;;;;;;16.13;5.03;;;;;;;;;;4913686;29;20496;-87
2021/12/30 03:04:20;;;;;;;15.17;6.17;;;;;;;;;;4919839;29;20241;-88
2021/12/30 03:06:50;;;;;;;8.57;4.43;;;;;;;;;;4919646;29;20227;-88
2021/12/30 03:09:19;;;;;;;8.80;4.03;;;;;;;;;;4919863;29;20238;-87
2021/12/30 03:11:50;;;;;;;12.67;3.73;;;;;;;;;;4919906;29;20203;-87
2021/12/30 03:14:18;;;;;;;7.40;4.13;;;;;;;;;;4920051;29;20242;-87
2021/12/30 03:16:47;;;;;;;10.03;3.57;;;;;;;;;;4918129;29;20207;-87
2021/12/30 03:19:15;;;;;;;7.00;3.47;;;;;;;;;;4919253;29;20203;-87
2021/12/30 03:21:43;;;;;;;7.60;3.40;;;;;;;;;;4919345;29;20291;-88
2021/12/30 03:24:12;;;;;;;5.53;4.33;;;;;;;;;;4919291;29;20262;-87
2021/12/30 03:26:40;;;;;;;8.40;5.10;;;;;;;;;;4919453;29;20241;-88
2021/12/30 03:29:10;;;;;;;21.90;6.13;;;;;;;;;;4919769;29;20266;-88
2021/12/30 03:31:38;;;;;;;4.70;2.27;;;;;;;;;;4919405;29;20290;-88
2021/12/30 03:34:07;;;;;;;19.67;6.57;;;;;;;;;;4919412;29;20206;-88
2021/12/30 03:36:37;;;;;;;8.63;2.97;;;;;;;;;;4919216;29;20231;-87
2021/12/30 03:39:07;;;;;;;5.63;3.07;;;;;;;;;;4919467;29;20239;-87
2021/12/30 03:41:36;;;;;;;15.07;5.63;;;;;;;;;;4918775;29;20226;-88
2021/12/30 03:44:04;;;;;;;14.13;4.57;;;;;;;;;;4919131;29;20234;-87
2021/12/30 03:46:34;;;;;;;7.13;4.47;;;;;;;;;;4918893;29;20227;-88
2021/12/30 03:49:05;;;;;;;12.17;5.67;;;;;;;;;;4918715;29;20215;-88
2021/12/30 03:51:38;;;;;;;15.17;6.47;;;;;;;;;;4919013;29;20245;-88
2021/12/30 03:54:08;;;;;;;12.93;5.50;;;;;;;;;;4918888;29;20251;-88
2021/12/30 03:56:36;;;;;;;7.13;3.87;;;;;;;;;;4917946;29;20254;-87
2021/12/30 03:59:05;;;;;;;10.07;4.00;;;;;;;;;;4919186;29;20274;-88
2021/12/30 04:01:34;;;;;;;2.67;2.47;;;;;;;;;;4919151;29;20211;-88
2021/12/30 04:04:03;;;;;;;5.40;2.70;;;;;;;;;;4918965;29;20255;-87
2021/12/30 04:06:32;;;;;;;7.80;3.43;;;;;;;;;;4918868;29;20241;-88
2021/12/30 04:09:01;;;;;;;13.50;5.23;;;;;;;;;;4918629;29;20242;-87
2021/12/30 04:11:33;;;;;;;9.73;3.17;;;;;;;;;;4918364;29;20199;-87
2021/12/30 04:14:02;;;;;;;14.00;5.77;;;;;;;;;;4918534;29;20199;-88
2021/12/30 04:16:32;;;;;;;18.20;5.77;;;;;;;;;;4918870;29;20270;-87
2021/12/30 04:19:02;;;;;;;10.10;4.93;;;;;;;;;;4918468;29;20250;-88
2021/12/30 04:21:31;;;;;;;5.57;2.23;;;;;;;;;;4918573;29;20294;-88
2021/12/30 04:24:01;;;;;;;14.80;5.03;;;;;;;;;;4917969;29;20234;-87
2021/12/30 04:26:30;;;;;;;5.33;3.03;;;;;;;;;;4918260;29;20207;-88
2021/12/30 04:28:59;;;;;;;9.00;4.43;;;;;;;;;;4918323;29;20259;-87
2021/12/30 04:31:27;;;;;;;9.27;4.60;;;;;;;;;;4918586;29;20258;-87
2021/12/30 04:33:58;;;;;;;12.80;4.23;;;;;;;;;;4918354;29;20197;-88
2021/12/30 04:36:28;;;;;;;5.80;3.00;;;;;;;;;;4918714;29;20266;-87
2021/12/30 04:38:57;;;;;;;14.20;4.30;;;;;;;;;;4918162;29;20207;-87
2021/12/30 04:41:25;;;;;;;13.63;5.97;;;;;;;;;;4918384;29;20211;-88
2021/12/30 04:43:54;;;;;;;6.73;2.57;;;;;;;;;;4918408;29;20207;-87
2021/12/30 04:46:22;;;;;;;16.50;3.87;;;;;;;;;;4918177;29;20206;-88
2021/12/30 04:48:51;;;;;;;4.13;3.27;;;;;;;;;;4910476;29;20255;-87
2021/12/30 04:51:19;;;;;;;13.00;3.30;;;;;;;;;;4918466;29;20211;-87
2021/12/30 04:53:53;;;;;;;14.13;3.70;;;;;;;;;;4910872;29;20203;-88
2021/12/30 04:56:22;;;;;;;14.73;4.03;;;;;;;;;;4918463;29;20230;-88
2021/12/30 04:58:50;;;;;;;12.20;2.77;;;;;;;;;;4910610;29;20234;-87
2021/12/30 05:01:19;;;;;;;17.07;4.17;;;;;;;;;;4918503;29;20250;-87
2021/12/30 05:03:48;;;;;;;11.20;2.83;;;;;;;;;;4918084;29;20233;-88
2021/12/30 05:06:16;;;;;;;11.13;3.23;;;;;;;;;;4918224;29;20214;-87
2021/12/30 05:08:45;;;;;;;18.90;8.70;;;;;;;;;;4901102;29;20231;-87
2021/12/30 05:11:15;;;;;;;12.03;4.20;;;;;;;;;;4903165;29;20232;-87
2021/12/30 05:13:43;;;;;;;17.57;4.87;;;;;;;;;;4903025;29;20256;-87
2021/12/30 05:16:12;;;;;;;10.40;4.57;;;;;;;;;;4902536;29;20247;-88
2021/12/30 05:18:40;;;;;;;17.40;4.70;;;;;;;;;;4903026;29;20211;-87
2021/12/30 05:21:10;;;;;;;17.53;4.47;;;;;;;;;;4902712;29;20232;-87
2021/12/30 05:23:39;;;;;;;21.40;4.33;;;;;;;;;;4902278;29;20204;-88
2021/12/30 05:26:09;;;;;;;19.43;4.97;;;;;;;;;;4902674;29;20267;-88
2021/12/30 05:28:39;;;;;;;12.37;3.13;;;;;;;;;;4903026;29;20283;-88
2021/12/30 05:31:07;;;;;;;4.80;1.43;;;;;;;;;;4902656;29;20268;-88
2021/12/30 05:33:36;;;;;;;1.07;0.73;;;;;;;;;;4902397;29;20215;-88
2021/12/30 05:36:05;;;;;;;6.33;2.67;;;;;;;;;;4902200;29;20207;-88
2021/12/30 05:38:33;;;;;;;14.13;2.67;;;;;;;;;;4902685;29;20299;-88
2021/12/30 05:41:02;;;;;;;5.87;2.00;;;;;;;;;;4902575;29;20211;-88
2021/12/30 05:43:30;;;;;;;10.03;3.37;;;;;;;;;;4902621;29;20207;-88
2021/12/30 05:46:00;;;;;;;18.77;6.07;;;;;;;;;;4902367;29;20216;-88
2021/12/30 05:48:31;;;;;;;10.47;3.80;;;;;;;;;;4902464;29;20231;-88
2021/12/30 05:51:01;;;;;;;11.00;3.53;;;;;;;;;;4902432;29;20212;-88
2021/12/30 05:53:29;;;;;;;23.13;4.60;;;;;;;;;;4902103;29;20212;-88
2021/12/30 05:55:58;;;;;;;15.67;5.00;;;;;;;;;;4901900;29;20208;-88
2021/12/30 05:58:27;;;;;;;7.90;3.73;;;;;;;;;;4902255;29;20342;-88
2021/12/30 06:00:55;;;;;;;5.47;1.87;;;;;;;;;;4901938;29;20220;-88
2021/12/30 06:03:25;;;;;;;19.90;2.80;;;;;;;;;;4901898;29;20231;-88
2021/12/30 06:05:54;;;;;;;13.87;4.63;;;;;;;;;;4901909;29;20255;-88
2021/12/30 06:08:22;;;;;;;7.37;1.73;;;;;;;;;;4917462;29;20223;-88
2021/12/30 06:10:51;;;;;;;4.80;2.33;;;;;;;;;;4913239;29;20211;-88
2021/12/30 06:13:19;;;;;;;12.23;3.33;;;;;;;;;;4920866;29;20227;-88
2021/12/30 06:15:47;;;;;;;3.97;2.17;;;;;;;;;;4920837;29;20259;-88
2021/12/30 06:18:16;;;;;;;13.63;5.97;;;;;;;;;;4920357;29;20271;-88
2021/12/30 06:20:46;;;;;;;17.73;4.37;;;;;;;;;;4919546;29;20235;-87
2021/12/30 06:23:14;;;;;;;8.37;3.47;;;;;;;;;;4920635;29;20227;-87
2021/12/30 06:25:43;;;;;;;16.57;4.10;;;;;;;;;;4919857;29;20283;-88
2021/12/30 06:28:11;;;;;;;14.40;4.27;;;;;;;;;;4920189;29;20211;-86
2021/12/30 06:30:40;;;;;;;10.90;2.87;;;;;;;;;;4920315;29;20246;-87
2021/12/30 06:33:08;;;;;;;8.53;3.13;;;;;;;;;;4920496;29;20283;-88
2021/12/30 06:35:37;;;;;;;16.37;3.10;;;;;;;;;;4920418;29;20215;-87
2021/12/30 06:38:07;;;;;;;9.53;2.57;;;;;;;;;;4920242;29;20259;-87
2021/12/30 06:40:35;;;;;;;10.70;3.47;;;;;;;;;;4920292;29;20233;-88
2021/12/30 06:43:04;;;;;;;19.37;4.13;;;;;;;;;;4919991;29;20259;-88
2021/12/30 06:45:32;;;;;;;11.30;3.23;;;;;;;;;;4920346;29;20236;-88
2021/12/30 06:48:01;;;;;;;8.30;3.20;;;;;;;;;;4920022;29;20218;-87
2021/12/30 06:50:32;;;;;;;16.20;4.13;;;;;;;;;;4919620;29;20239;-87
2021/12/30 06:53:00;;;;;;;7.47;4.73;;;;;;;;;;4920030;29;20215;-87
2021/12/30 06:55:30;;;;;;;16.47;4.10;;;;;;;;;;4919591;29;20297;-88
2021/12/30 06:57:58;;;;;;;9.57;3.17;;;;;;;;;;4919725;29;20238;-87
2021/12/30 07:00:27;;;;;;;19.67;3.63;;;;;;;;;;4919372;29;20199;-87
2021/12/30 07:02:55;;;;;;;9.43;2.07;;;;;;;;;;4919972;29;20238;-88
2021/12/30 07:05:24;;;;;;;8.57;2.63;;;;;;;;;;4919719;29;20211;-87
2021/12/30 07:07:52;;;;;;;11.03;2.67;;;;;;;;;;4919880;29;20207;-88
2021/12/30 07:10:21;;;;;;;13.10;3.90;;;;;;;;;;4919594;29;20225;-88
2021/12/30 07:12:50;;;;;;;14.83;3.93;;;;;;;;;;4919930;29;20207;-88
2021/12/30 07:15:19;;;;;;;15.63;3.23;;;;;;;;;;4919435;29;20242;-87
2021/12/30 07:17:47;;;;;;;14.33;4.47;;;;;;;;;;4919622;29;20235;-88
2021/12/30 07:20:16;;;;;;;19.73;4.40;;;;;;;;;;4919392;29;20227;-87
2021/12/30 07:22:44;;;;;;;7.97;2.90;;;;;;;;;;4919578;29;20207;-87
2021/12/30 07:25:17;;;;;;;13.90;2.53;;;;;;;;;;4918948;29;20257;-88
2021/12/30 07:27:46;;;;;;;11.63;3.97;;;;;;;;;;4919414;29;20229;-87
2021/12/30 07:30:17;;;;;;;9.43;3.07;;;;;;;;;;4918870;29;20226;-87
2021/12/30 07:32:45;;;;;;;7.73;2.40;;;;;;;;;;4919326;29;20203;-87
2021/12/30 07:35:14;;;;;;;11.13;3.23;;;;;;;;;;4919538;29;20211;-88
2021/12/30 07:37:42;;;;;;;10.17;3.20;;;;;;;;;;4919416;29;20235;-88
2021/12/30 07:40:11;;;;;;;14.00;3.93;;;;;;;;;;4919048;29;20278;-87
2021/12/30 07:50:02;;;;;;;11.53;3.43;;;;;;;;;;4752380;30;20241;-88
2021/12/30 07:56:32;;;;;;;17.77;4.70;;;;;;;;;;4751897;30;20212;-89
2021/12/30 07:59:46;;;;;;;28.40;5.83;;;;;;;;;;4699658;30;20215;-88
2021/12/30 08:06:27;;;;;;;9.20;2.63;;;;;;;;;;4700164;30;20227;-88
2021/12/30 08:09:22;;;;;;;10.83;4.70;;;;;;;;;;4747404;29;20215;-88
2021/12/30 08:12:34;;;;;;;14.93;4.73;;;;;;;;;;4752059;30;20221;-88
2021/12/30 08:19:33;;;;;;;15.47;6.20;;;;;;;;;;4751957;30;20216;-88
2021/12/30 08:39:39;;;;;;;;;;;;;;;;;;;;;
2021/12/30 08:42:56;;;;;;;32.67;6.50;;;;;;;;;;4867048;29;20211;-88
2021/12/30 08:45:54;;;;;;;21.87;6.77;;;;;;;;;;4915452;29;20221;-88
2021/12/30 08:49:07;;;;;;;17.23;6.00;;;;;;;;;;4915601;29;20212;-88
2021/12/30 08:52:08;;;;;;;;;;;;;;;;;;;;;
2021/12/30 08:58:50;;;;;;;16.53;5.60;;;;;;;;;;4897898;29;20206;-88
2021/12/30 09:02:00;;;;;;;22.90;7.00;;;;;;;;;;4837269;29;20257;-88
2021/12/30 09:05:23;;;;;;;36.43;6.77;;;;;;;;;;4840874;29;20229;-88
2021/12/30 09:08:28;;;;;;;24.80;6.33;;;;;;;;;;4841004;29;20214;-88
2021/12/30 09:11:32;;;;;;;18.60;6.27;;;;;;;;;;4889172;29;20235;-88
2021/12/30 09:14:59;;;;;;;29.67;7.80;;;;;;;;;;4882639;29;20199;-88
2021/12/30 09:18:28;;;;;;;;;;;;;;;;;;;;;
2021/12/30 09:25:21;;;;;;;;;;;;;;;;;;;;;
2021/12/30 09:28:21;;;;;;;34.30;6.80;;;;;;;;;;4841301;29;20218;-88
2021/12/30 10:01:27;;;;;;;23.50;5.07;;;;;;;;;;4787527;29;20215;-87
2021/12/30 10:11:51;;;;;;;23.33;7.60;;;;;;;;;;4844478;29;20245;-88
2021/12/30 10:15:00;;;;;;;21.50;6.07;;;;;;;;;;4844684;29;20216;-88
2021/12/30 10:29:13;;;;;;;18.47;6.53;;;;;;;;;;4877620;29;20275;-88
2021/12/30 10:35:49;;;;;;;;;;;;;;;;;;;;;
2021/12/30 10:42:15;;;;;;;;;;;;;;;;;;;;;
2021/12/30 10:52:16;;;;;;;;;;;;;;;;;;;;;
2021/12/30 16:37:20;;;;;;;21.13;5.10;;;;;;;;;;4881396;29;20240;-89
2021/12/30 16:39:48;;;;;;;19.77;5.13;;;;;;;;;;4881139;29;20212;-89
2021/12/30 16:42:17;;;;;;;6.33;2.83;;;;;;;;;;4881304;29;20215;-89
2021/12/30 16:44:45;;;;;;;14.17;3.17;;;;;;;;;;4881772;29;20217;-89
2021/12/30 16:47:17;;;;;;;28.70;5.00;;;;;;;;;;4881393;29;20291;-88
2021/12/30 16:49:45;;;;;;;10.17;3.43;;;;;;;;;;4881838;29;20219;-88
2021/12/30 16:52:14;;;;;;;15.80;4.10;;;;;;;;;;4881968;29;20224;-89
2021/12/30 16:54:43;;;;;;;11.20;4.13;;;;;;;;;;4881393;29;20208;-89
2021/12/30 16:57:13;;;;;;;13.00;4.10;;;;;;;;;;4880976;29;20191;-89
2021/12/30 16:59:41;;;;;;;7.27;3.67;;;;;;;;;;4880862;29;20204;-89
2021/12/30 17:02:10;;;;;;;16.83;5.40;;;;;;;;;;4881300;29;20232;-89
2021/12/30 17:04:38;;;;;;;9.10;4.17;;;;;;;;;;4882871;29;20232;-89
2021/12/30 17:07:07;;;;;;;19.27;4.53;;;;;;;;;;4884991;29;20208;-89
2021/12/30 17:09:39;;;;;;;15.20;6.47;;;;;;;;;;4885633;29;20232;-89
2021/12/30 17:12:10;;;;;;;24.10;7.07;;;;;;;;;;4885489;29;20256;-89
2021/12/30 17:14:38;;;;;;;15.47;4.37;;;;;;;;;;4884772;29;20216;-89
2021/12/30 17:17:06;;;;;;;15.00;4.30;;;;;;;;;;4884524;29;20295;-88
2021/12/30 17:19:38;;;;;;;15.97;5.17;;;;;;;;;;4884918;29;20242;-89
2021/12/30 17:22:07;;;;;;;14.73;5.87;;;;;;;;;;4884809;29;20204;-89
2021/12/30 17:24:35;;;;;;;12.60;5.30;;;;;;;;;;4884549;29;20291;-89
2021/12/30 17:27:05;;;;;;;28.37;7.83;;;;;;;;;;4884860;29;20254;-88
2021/12/30 17:29:34;;;;;;;17.10;5.83;;;;;;;;;;4884943;29;20268;-89
2021/12/30 17:32:03;;;;;;;11.80;3.80;;;;;;;;;;4884520;29;20236;-88
2021/12/30 17:34:31;;;;;;;26.63;7.43;;;;;;;;;;4884491;29;20208;-89
2021/12/30 17:37:02;;;;;;;27.77;6.17;;;;;;;;;;4898710;29;20246;-89
2021/12/30 17:39:31;;;;;;;32.30;7.60;;;;;;;;;;4903841;29;20208;-89
2021/12/30 17:42:00;;;;;;;20.10;6.37;;;;;;;;;;4903490;29;20287;-88
2021/12/30 17:44:31;;;;;;;14.87;4.83;;;;;;;;;;4903246;29;20212;-88
2021/12/30 17:47:01;;;;;;;22.10;5.93;;;;;;;;;;4902585;29;20207;-88
2021/12/30 17:49:30;;;;;;;18.57;6.90;;;;;;;;;;4902268;29;20207;-89
2021/12/30 17:51:59;;;;;;;11.47;4.73;;;;;;;;;;4903255;29;20243;-89
2021/12/30 17:54:27;;;;;;;13.90;5.07;;;;;;;;;;4902993;29;20271;-89
2021/12/30 17:56:55;;;;;;;37.63;5.80;;;;;;;;;;4903138;29;20236;-89
2021/12/30 17:59:24;;;;;;;27.10;5.37;;;;;;;;;;4902997;29;20207;-89
2021/12/30 18:01:54;;;;;;;16.00;4.33;;;;;;;;;;4903021;29;20207;-88
2021/12/30 18:04:24;;;;;;;10.30;4.23;;;;;;;;;;4903265;29;20238;-88
2021/12/30 18:06:53;;;;;;;19.07;5.43;;;;;;;;;;4902107;29;20232;-88
2021/12/30 18:09:21;;;;;;;11.50;5.37;;;;;;;;;;4902772;29;20207;-88
2021/12/30 18:11:50;;;;;;;11.77;3.67;;;;;;;;;;4894707;29;20216;-88
2021/12/30 18:14:19;;;;;;;22.90;6.77;;;;;;;;;;4902313;29;20212;-88
2021/12/30 18:16:47;;;;;;;8.77;2.27;;;;;;;;;;4901106;29;20208;-89
2021/12/30 18:19:16;;;;;;;17.07;4.87;;;;;;;;;;4902309;29;20208;-87
2021/12/30 18:21:46;;;;;;;21.37;4.27;;;;;;;;;;4899048;29;20223;-88
2021/12/30 18:24:15;;;;;;;16.20;4.60;;;;;;;;;;4883369;29;20212;-88
2021/12/30 18:26:43;;;;;;;16.43;4.73;;;;;;;;;;4883333;29;20207;-88
2021/12/30 18:29:12;;;;;;;10.13;5.77;;;;;;;;;;4883535;29;20284;-88
2021/12/30 18:31:40;;;;;;;11.43;3.83;;;;;;;;;;4883299;29;20219;-88
2021/12/30 18:34:11;;;;;;;13.33;4.43;;;;;;;;;;4883227;29;20327;-87
2021/12/30 18:36:40;;;;;;;8.83;3.07;;;;;;;;;;4883247;29;20323;-88
2021/12/30 18:39:10;;;;;;;9.80;3.50;;;;;;;;;;4883018;29;20299;-88
2021/12/30 18:41:39;;;;;;;12.50;3.60;;;;;;;;;;4883453;29;20224;-88
2021/12/30 18:44:09;;;;;;;18.47;5.03;;;;;;;;;;4883466;29;20239;-88
2021/12/30 18:46:41;;;;;;;13.13;4.00;;;;;;;;;;4883142;29;20213;-88
2021/12/30 18:49:12;;;;;;;16.67;4.07;;;;;;;;;;4883200;29;20193;-88
2021/12/30 18:51:42;;;;;;;11.83;5.17;;;;;;;;;;4883154;29;20233;-88
2021/12/30 18:54:12;;;;;;;18.27;4.40;;;;;;;;;;4882534;29;20236;-88
2021/12/30 18:56:42;;;;;;;16.30;4.33;;;;;;;;;;4883544;29;20234;-88
2021/12/30 18:59:10;;;;;;;8.73;3.97;;;;;;;;;;4883177;29;20273;-87
2021/12/30 19:01:39;;;;;;;9.63;3.10;;;;;;;;;;4883091;29;20236;-87
2021/12/30 19:04:08;;;;;;;7.63;3.23;;;;;;;;;;4882563;29;20307;-88
2021/12/30 19:06:37;;;;;;;11.90;5.33;;;;;;;;;;4884868;29;20233;-87
2021/12/30 19:09:06;;;;;;;15.20;3.97;;;;;;;;;;4901133;29;20215;-88
2021/12/30 19:11:36;;;;;;;7.53;3.23;;;;;;;;;;4900874;29;20240;-87
2021/12/30 19:14:05;;;;;;;18.17;5.07;;;;;;;;;;4900736;29;20279;-88
2021/12/30 19:16:33;;;;;;;20.20;5.60;;;;;;;;;;4901329;29;20232;-88
2021/12/30 19:19:02;;;;;;;19.20;5.97;;;;;;;;;;4901312;29;20211;-87
2021/12/30 19:21:31;;;;;;;15.13;3.40;;;;;;;;;;4901386;29;20212;-88
2021/12/30 19:24:00;;;;;;;17.63;3.73;;;;;;;;;;4901546;29;20234;-88
2021/12/30 19:26:30;;;;;;;18.30;6.70;;;;;;;;;;4900832;29;20212;-88
2021/12/30 19:29:00;;;;;;;27.53;4.47;;;;;;;;;;4901178;29;20342;-88
2021/12/30 19:31:29;;;;;;;24.27;5.50;;;;;;;;;;4901386;29;20203;-87
2021/12/30 19:33:58;;;;;;;18.57;4.30;;;;;;;;;;4900595;29;20263;-87
2021/12/30 19:36:28;;;;;;;4.40;2.30;;;;;;;;;;4900634;29;20299;-87
2021/12/30 19:38:56;;;;;;;10.03;4.40;;;;;;;;;;4900630;29;20216;-88
2021/12/30 19:41:27;;;;;;;15.93;5.17;;;;;;;;;;4901524;29;20196;-88
2021/12/30 19:43:55;;;;;;;26.50;5.57;;;;;;;;;;4900745;29;20295;-88
2021/12/30 19:46:31;;;;;;;22.67;3.50;;;;;;;;;;4900905;29;20207;-87
2021/12/30 19:49:00;;;;;;;26.87;7.07;;;;;;;;;;4901136;29;20208;-87
2021/12/30 19:51:32;;;;;;;13.90;3.17;;;;;;;;;;4900943;29;20231;-87
2021/12/30 19:54:00;;;;;;;8.20;3.07;;;;;;;;;;4900578;29;20259;-88
2021/12/30 19:56:29;;;;;;;15.63;3.87;;;;;;;;;;4900803;29;20238;-88
2021/12/30 19:58:57;;;;;;;18.77;4.90;;;;;;;;;;4900697;29;20241;-87
2021/12/30 20:01:27;;;;;;;24.57;5.27;;;;;;;;;;4900568;29;20259;-88
2021/12/30 20:03:56;;;;;;;15.37;5.70;;;;;;;;;;4900301;29;20223;-87
2021/12/30 20:06:24;;;;;;;17.97;5.07;;;;;;;;;;4900966;29;20204;-88
2021/12/30 20:08:52;;;;;;;16.27;3.67;;;;;;;;;;4919561;29;20238;-88
2021/12/30 20:11:21;;;;;;;14.37;4.47;;;;;;;;;;4919063;29;20246;-87
2021/12/30 20:13:50;;;;;;;10.07;3.07;;;;;;;;;;4919052;29;20226;-87
2021/12/30 20:16:18;;;;;;;11.53;3.43;;;;;;;;;;4919517;29;20207;-87
2021/12/30 20:18:48;;;;;;;7.00;2.30;;;;;;;;;;4919115;29;20209;-87
2021/12/30 20:21:16;;;;;;;9.93;3.67;;;;;;;;;;4919222;29;20237;-87
2021/12/30 20:23:45;;;;;;;13.53;3.60;;;;;;;;;;4918955;29;20215;-87
2021/12/30 20:26:14;;;;;;;16.63;4.10;;;;;;;;;;4919289;29;20210;-87
2021/12/30 20:28:43;;;;;;;12.90;3.73;;;;;;;;;;4918881;29;20207;-87
2021/12/30 20:31:11;;;;;;;15.20;4.27;;;;;;;;;;4918580;29;20219;-87
2021/12/30 20:33:44;;;;;;;7.00;3.80;;;;;;;;;;4918474;29;20282;-87
2021/12/30 20:36:14;;;;;;;11.43;3.37;;;;;;;;;;4918587;29;20270;-87
2021/12/30 20:38:44;;;;;;;11.00;2.50;;;;;;;;;;4917514;29;20211;-86
2021/12/30 20:41:12;;;;;;;8.03;2.73;;;;;;;;;;4918546;29;20238;-88
2021/12/30 20:43:42;;;;;;;9.37;3.57;;;;;;;;;;4918720;29;20230;-88
2021/12/30 20:46:11;;;;;;;15.17;3.50;;;;;;;;;;4919216;29;20198;-88
2021/12/30 20:48:40;;;;;;;18.87;4.07;;;;;;;;;;4919158;29;20222;-88
2021/12/30 20:51:08;;;;;;;23.27;5.23;;;;;;;;;;4919048;29;20211;-88
2021/12/30 20:53:41;;;;;;;14.90;4.20;;;;;;;;;;4918677;29;20223;-88
2021/12/30 20:56:11;;;;;;;8.13;2.83;;;;;;;;;;4918950;29;20259;-88
2021/12/30 20:58:40;;;;;;;20.07;4.93;;;;;;;;;;4918882;29;20222;-88
2021/12/30 21:01:10;;;;;;;14.70;4.23;;;;;;;;;;4918776;29;20215;-88
2021/12/30 21:03:39;;;;;;;8.47;3.53;;;;;;;;;;4918882;29;20227;-88
2021/12/30 21:06:08;;;;;;;14.40;4.43;;;;;;;;;;4918512;29;20211;-88
2021/12/30 21:08:36;;;;;;;15.60;3.60;;;;;;;;;;4918554;29;20243;-88
2021/12/30 21:11:07;;;;;;;12.77;4.87;;;;;;;;;;4918280;29;20219;-88
2021/12/30 21:13:36;;;;;;;15.07;6.20;;;;;;;;;;4918611;29;20226;-88
2021/12/30 21:16:04;;;;;;;13.97;4.20;;;;;;;;;;4918183;29;20211;-88
2021/12/30 21:18:33;;;;;;;13.13;3.67;;;;;;;;;;4918283;29;20206;-88
2021/12/30 21:21:03;;;;;;;20.27;6.13;;;;;;;;;;4918568;29;20214;-88
2021/12/30 21:23:32;;;;;;;16.80;4.00;;;;;;;;;;4918485;29;20234;-88
2021/12/30 21:26:02;;;;;;;16.00;4.97;;;;;;;;;;4918454;29;20211;-88
2021/12/30 21:28:32;;;;;;;21.40;4.83;;;;;;;;;;4918529;29;20218;-88
2021/12/30 21:31:01;;;;;;;12.57;3.13;;;;;;;;;;4918188;29;20259;-88
2021/12/30 21:33:32;;;;;;;16.33;5.10;;;;;;;;;;4918379;29;20203;-88
2021/12/30 21:36:01;;;;;;;15.47;4.03;;;;;;;;;;4917492;29;20247;-88
2021/12/30 21:38:29;;;;;;;8.93;3.17;;;;;;;;;;4918646;29;20203;-88
2021/12/30 21:40:58;;;;;;;11.30;4.07;;;;;;;;;;4918631;29;20211;-88
2021/12/30 21:43:28;;;;;;;13.10;4.73;;;;;;;;;;4918748;29;20211;-88
2021/12/30 21:45:58;;;;;;;9.70;3.10;;;;;;;;;;4918462;29;20643;-87
2021/12/30 21:48:26;;;;;;;7.70;2.83;;;;;;;;;;4918614;29;20211;-88
2021/12/30 21:50:55;;;;;;;36.17;4.47;;;;;;;;;;4920489;29;20208;-88
2021/12/30 21:53:24;;;;;;;9.17;4.70;;;;;;;;;;4921809;29;20271;-87
2021/12/30 21:55:53;;;;;;;8.93;4.60;;;;;;;;;;4920930;29;20230;-88
2021/12/30 21:58:22;;;;;;;13.43;4.37;;;;;;;;;;4922006;29;20303;-89
2021/12/30 22:00:50;;;;;;;6.70;2.63;;;;;;;;;;4921418;29;20207;-88
2021/12/30 22:03:21;;;;;;;8.43;2.80;;;;;;;;;;4921302;29;20239;-89
2021/12/30 22:05:50;;;;;;;12.73;2.80;;;;;;;;;;4921704;29;20211;-88
2021/12/30 22:08:18;;;;;;;10.10;3.10;;;;;;;;;;4905777;29;20264;-89
2021/12/30 22:10:49;;;;;;;6.47;2.93;;;;;;;;;;4902927;29;20216;-89
2021/12/30 22:13:18;;;;;;;15.73;3.53;;;;;;;;;;4902904;29;20199;-88
2021/12/30 22:15:47;;;;;;;16.63;3.73;;;;;;;;;;4902348;29;20257;-88
2021/12/30 22:18:16;;;;;;;15.90;4.70;;;;;;;;;;4902770;29;20298;-88
2021/12/30 22:20:46;;;;;;;13.80;3.20;;;;;;;;;;4902831;29;20240;-89
2021/12/30 22:23:15;;;;;;;14.87;4.67;;;;;;;;;;4902560;29;20196;-89
2021/12/30 22:25:43;;;;;;;12.57;3.93;;;;;;;;;;4902560;29;20259;-89
2021/12/30 22:28:13;;;;;;;11.17;3.73;;;;;;;;;;4902465;29;20208;-90
2021/12/30 22:30:43;;;;;;;12.90;4.40;;;;;;;;;;4902252;29;20247;-87
2021/12/30 22:33:11;;;;;;;19.63;3.27;;;;;;;;;;4901984;29;20243;-88
2021/12/30 22:35:57;;;;;;;16.47;4.23;;;;;;;;;;4901702;29;20240;-88
2021/12/30 22:38:25;;;;;;;13.93;5.57;;;;;;;;;;4902148;29;20204;-88